Create Custom Reports and Graphics: Custom Report

Anza Map

Map

10 Minute Data

Latest Observation

23 Stations

10 Minute Data | America/Los_Angeles
as of 3/3/21 10:55 PM PST
Station Date Time Temp (°F) Dew Pt (°F) RH (%) Wind Spd (mph) Wind Dir (°) Wind Gust (mph) Wind Gst Dir (°) Daily Max Temp (°F) Daily Min Temp (°F) Daily Max Wind (mph) Max Wind Dir (°)
Thomas Mountain 3/3/21 2250 34.8   11.0 34.8   26.4 100   79 16.8 WSW | 254 26.7 WSW | 250 47.2 29.2 30.9 SSW | 206
Red Mountain 3/3/21 2240 37.1   11.4 37.1   26.7 100   79 12.4 SW | 224 18.0 SW | 221 48.6 30.2 32.4 ESE | 107
Coyote Canyon 3/3/21 2250 39.2   11.3 37.3   26.4 93   73 11.8 WNW | 288 15.6 WNW | 298 52.8 33.3 38.1 SSW | 205
Pinyon 3/3/21 2250 39.2   10.8 35.0   25.0 85   65 21.7 WSW | 243 30.0 WSW | 240 50.0 31.4 50.4 SSW | 211
Aguanga Barbara Trail 3/3/21 2250 41.0   10.1 38.6   27.0 91   71 2.5 NNW | 340 4.6 N | 354 52.6 34.7 25.9 ESE | 106
SCE Idyllwild Ridge 3/3/21 2250 32.3   9.6 31.7   28.5 98   78 0.0 N | 0 0.0 SE | 143 44.1 28.0 9.6 S | 186
SCE Idyllwild Hwy 3/3/21 2250 44.0   1.9 43.2   28.5 97   69 1.0 SSE | 158 2.3 S | 185 55.5 35.5 22.9 S | 183
SCE Apple Canyon 3/3/21 2200 35.4   11.9 34.7   30.5 97   81 2.0 WNW | 284 5.1 W | 268 47.9 30.0 22.6 SW | 228
SCE Keen Ridge 3/3/21 2200 34.4   9.6 34.4   26.2 100   77 5.4 WNW | 282 8.9 W | 274 46.0 28.5 23.4 W | 280
SCE Aguanga 3/3/21 2250 43.0   9.0 40.7   27.9 92   71 1.8 SSW | 201 2.9 SW | 217 57.8 39.3 31.1 S | 174
SCE Butterfield Valley 3/3/21 2250 45.0   3.4 44.2   26.3 97   59 1.8 SSE | 155 3.1 SSE | 160 58.7 31.3 41.4 S | 180
SCE Anza Rd 3/3/21 2250 46.1   2.2 45.4   24.3 97   57 1.0 NNW | 327 2.2 NNW | 348 56.6 32.9 25.0 SSW | 194
SCE Wilson Valley Rd 3/3/21 2250 42.7   11.7 42.1   29.0 98   79 2.9 N | 8 6.1 N | 352 55.8 38.6 20.8 SW | 220
SCE Weber Valley 3/3/21 2250 42.8   11.0 41.2   29.4 94   76 0.4 SW | 217 2.2 SW | 225 53.9 37.1 22.4 SW | 221
SCE Red Mountain Rd 3/3/21 2200 40.4   13.8 39.9   28.6 98   80 0.3 SW | 218 1.8 SSW | 204 53.8 33.8 24.7 S | 186
SCE Brown Canyon 3/3/21 2200 44.3   4.0 40.8   26.8 87   63 1.5 E | 92 2.9 E | 97 55.7 39.1 21.0 SE | 145
SCE Cedar Ave 3/3/21 2250 45.8   0.3 42.2   24.0 87   54 1.3 S | 175 2.4 S | 173 56.1 36.8 22.2 S | 169
SCE Anderson Dr 3/3/21 2240 45.3   4.9 43.1   26.5 92   66 0.7 SW | 233 2.6 SSW | 201 57.4 40.6 20.3 SSE | 168
SCE Pachea Trail 3/3/21 2250 44.4   11.3 43.3   30.0 96   78 5.3 SSW | 192 6.9 S | 181 56.7 38.7 32.1 SSW | 208
SCE Painted Canyon Rd 3/3/21 2200 52.1   7.9 40.3   26.5 64   48 2.4 SW | 221 3.3 SSW | 209 60.6 49.6 30.9 SW | 233
Oak Grove 3/3/21 2250 40.6   8.0 39.7   28.0 96   74 2.7 SSW | 206 5.9 SSW | 204 54.1 35.7 31.6 SE | 142
Chihuahua Valley 3/3/21 2250 37.5   9.4 37.4   28.2 100   78 8.2 SSW | 205 14.5 SW | 220 49.0 31.2 25.5 SW | 222
Sunshine Summit 3/3/21 2250 41.9   1.4 41.3   29.5 98   70 2.7 ESE | 123 9.7 SSW | 213 52.0 35.2 24.9 SSW | 208
Max     52.1 45.4 100 21.7 - 30.0 - 60.6 49.6 50.4 -
Avg     41.3 39.5 94 4.6 - 7.7 - - - - -
Min     32.3 31.7 64 0.0 - 0.0 - 44.1 28.0 9.6 -